KFSO

Details ICAO KFSO
Name FRANKLIN CO STATE
Region United States
Timezone America/New_York (UTC-5.0)
Plans Departing 46
Arriving 44
Stats Elevation 228 ft / 69 m (AMSL)
Location 44.940290° -73.097460°
Runways 1
Magnetic Variation 14.476° W
Sunrise 2017-12-13 12:23:37 UTC / 2017-12-13 07:23:37 Local
Sunset 2017-12-13 21:12:35 UTC / 2017-12-13 16:12:35 Local
Advertisement - Login to hide

Runways

ID Width Length Bearing (true) Bearing (mag) Surface Threshold Offset Overrun Length
01 60 ft / 18 m 3,002 ft / 915 m 349.49° 3.97° Asphalt 0 ft / 0 m 0 ft / 0 m
19 60 ft / 18 m 3,002 ft / 915 m 169.49° 183.97° Asphalt 0 ft / 0 m 0 ft / 0 m

Map

Weather


0- 5 10 15 20 25 30 35+ Temperature / ° C

Clouds and Precipitation
Forecast for 2017-12-13 18:00 UTC. Updated an hour ago

Ground ~20,000 ft ~40,000 ft Winds

METAR

KFSO 131815Z AUTO 27007G19KT 10SM OVC026 M12/M17 A2936 RMK AO2 T11181166

TAF

Not found

Frequencies

Recorded 119.02 MHz AWOS 3
Approach 121.10 MHz BURLINGTON APP/DEP
Unicom 122.80 MHz CTAF/UNICOM
Approach 126.30 MHz BURLINGTON APP/DEP
Warning: Do not use this data for real-world aviation or navigation. No guarantee of current accuracy is given.